createdAt,value
2022-12-12T00:00:42.303Z,78.38
2022-12-12T00:03:09.292Z,77.56
2022-12-12T00:05:36.703Z,77.25
2022-12-12T00:08:03.554Z,79.95
2022-12-12T00:10:30.624Z,78.69
2022-12-12T00:12:57.266Z,77.54
2022-12-12T00:15:24.027Z,77.76
2022-12-12T00:17:50.670Z,78.31
2022-12-12T00:20:17.342Z,78.63
2022-12-12T00:22:44.022Z,76.15
2022-12-12T00:25:11.380Z,76.32
2022-12-12T00:27:39.709Z,76.00
2022-12-12T00:30:08.002Z,76.22
2022-12-12T00:32:34.625Z,77.16
2022-12-12T00:35:01.339Z,77.30
2022-12-12T00:37:29.972Z,78.03
2022-12-12T00:39:57.107Z,78.21
2022-12-12T00:42:27.815Z,78.68
2022-12-12T00:44:54.744Z,78.75
2022-12-12T00:47:21.328Z,78.64
2022-12-12T00:49:48.035Z,78.43
2022-12-12T00:52:14.700Z,78.13
2022-12-12T00:54:41.619Z,78.27
2022-12-12T00:57:09.795Z,78.25
2022-12-12T00:59:37.055Z,78.54
2022-12-12T01:02:03.949Z,79.38
2022-12-12T01:04:30.638Z,78.41
2022-12-12T01:06:58.313Z,79.10
2022-12-12T01:09:25.057Z,78.95
2022-12-12T01:11:51.820Z,78.85
2022-12-12T01:14:18.641Z,78.97
2022-12-12T01:16:45.334Z,79.45
2022-12-12T01:19:11.983Z,79.82
2022-12-12T01:21:38.694Z,80.43
2022-12-12T01:24:05.665Z,79.61
2022-12-12T01:26:32.323Z,80.14
2022-12-12T01:28:58.992Z,81.43
2022-12-12T01:31:25.691Z,79.80
2022-12-12T01:33:52.473Z,81.09
2022-12-12T01:36:21.847Z,80.22
2022-12-12T01:38:51.570Z,80.51
2022-12-12T01:41:19.697Z,79.60
2022-12-12T01:43:46.852Z,78.31
2022-12-12T01:46:22.652Z,78.92
2022-12-12T01:49:09.903Z,79.93
2022-12-12T01:51:39.973Z,80.28
2022-12-12T01:54:10.552Z,80.08
2022-12-12T01:56:39.575Z,80.52
2022-12-12T01:59:08.741Z,81.30
2022-12-12T02:01:36.406Z,80.71
2022-12-12T02:04:03.797Z,80.39
2022-12-12T02:06:30.706Z,80.55
2022-12-12T02:09:01.777Z,80.32
2022-12-12T02:11:32.714Z,80.20
2022-12-12T02:13:59.821Z,80.16
2022-12-12T02:16:49.707Z,80.13
2022-12-12T02:19:44.100Z,81.33
2022-12-12T02:22:41.644Z,80.78
2022-12-12T02:25:20.138Z,80.96
2022-12-12T02:28:15.840Z,80.77
2022-12-12T02:31:10.748Z,79.82
2022-12-12T02:33:55.633Z,80.33
2022-12-12T02:36:30.964Z,80.18
2022-12-12T02:39:10.001Z,80.18
2022-12-12T02:41:44.029Z,80.04
2022-12-12T02:44:32.867Z,82.76
2022-12-12T02:47:24.374Z,83.06
2022-12-12T02:50:02.272Z,82.61
2022-12-12T02:52:31.574Z,80.61
2022-12-12T02:55:01.476Z,81.28
2022-12-12T02:57:29.924Z,82.06
2022-12-12T03:00:08.223Z,81.75
2022-12-12T03:03:14.241Z,81.33
2022-12-12T03:06:25.935Z,78.40
2022-12-12T03:09:04.975Z,79.07
2022-12-12T03:12:08.115Z,78.60
2022-12-12T03:14:54.675Z,78.43
2022-12-12T03:17:34.883Z,78.52
2022-12-12T03:20:25.686Z,79.27
2022-12-12T03:22:59.766Z,79.47
2022-12-12T03:25:43.429Z,79.04
2022-12-12T03:28:16.677Z,79.01
2022-12-12T03:30:48.082Z,78.40
2022-12-12T03:33:25.604Z,76.72
2022-12-12T03:35:59.496Z,77.07
2022-12-12T03:38:32.715Z,76.93
2022-12-12T03:41:04.113Z,77.88
2022-12-12T03:43:37.556Z,77.71
2022-12-12T03:46:16.763Z,77.44
2022-12-12T03:49:01.353Z,77.34
2022-12-12T03:51:31.703Z,78.10
2022-12-12T03:54:13.051Z,77.85
2022-12-12T03:56:46.253Z,76.26
2022-12-12T03:59:22.793Z,75.93
2022-12-12T04:02:00.561Z,73.73
2022-12-12T04:05:20.929Z,73.89
2022-12-12T04:08:00.004Z,74.08
2022-12-12T04:10:50.813Z,75.40
2022-12-12T04:13:32.714Z,76.84
2022-12-12T04:16:08.600Z,76.48
2022-12-12T04:18:51.068Z,76.02
2022-12-12T04:21:48.716Z,76.87
2022-12-12T04:24:35.340Z,78.46
2022-12-12T04:27:09.898Z,80.28
2022-12-12T04:29:48.646Z,80.34
2022-12-12T04:32:22.808Z,78.60
2022-12-12T04:35:13.872Z,76.88
2022-12-12T04:37:46.076Z,77.41
2022-12-12T04:40:17.432Z,77.37
2022-12-12T04:42:50.647Z,78.62
2022-12-12T04:45:22.020Z,80.59
2022-12-12T04:47:52.254Z,80.17
2022-12-12T04:50:23.167Z,78.85
2022-12-12T04:52:52.948Z,79.77
2022-12-12T04:55:24.483Z,79.57
2022-12-12T04:57:56.592Z,79.15
2022-12-12T05:00:26.474Z,79.04
2022-12-12T05:03:15.027Z,78.52
2022-12-12T05:05:51.090Z,79.47
2022-12-12T05:08:41.390Z,78.07
2022-12-12T05:11:08.439Z,78.39
2022-12-12T05:13:41.213Z,78.39
2022-12-12T05:16:19.078Z,78.53
2022-12-12T05:18:46.308Z,80.27
2022-12-12T05:21:13.816Z,77.86
2022-12-12T05:23:40.441Z,76.98
2022-12-12T05:26:18.750Z,76.10
2022-12-12T05:28:45.503Z,77.08
2022-12-12T05:31:12.153Z,78.15
2022-12-12T05:33:38.827Z,78.05
2022-12-12T05:36:05.975Z,78.88
2022-12-12T05:38:32.559Z,79.06
2022-12-12T05:40:59.248Z,78.79
2022-12-12T05:43:26.023Z,77.84
2022-12-12T05:45:52.696Z,78.97
2022-12-12T05:48:24.127Z,80.24
2022-12-12T05:50:51.848Z,78.94
2022-12-12T05:53:19.813Z,79.06
2022-12-12T05:55:46.481Z,79.93
2022-12-12T05:58:13.056Z,79.58
2022-12-12T06:00:40.127Z,79.15
2022-12-12T06:03:07.445Z,77.97
2022-12-12T06:05:34.324Z,76.99
2022-12-12T06:08:04.092Z,78.12
2022-12-12T06:10:30.811Z,78.85
2022-12-12T06:12:57.437Z,77.22
2022-12-12T06:15:24.127Z,77.15
2022-12-12T06:17:53.366Z,76.92
2022-12-12T06:20:20.705Z,77.53
2022-12-12T06:22:53.435Z,77.40
2022-12-12T06:25:23.683Z,77.96
2022-12-12T06:27:51.306Z,78.31
2022-12-12T06:30:18.125Z,79.55
2022-12-12T06:32:44.847Z,80.45
2022-12-12T06:35:12.163Z,79.99
2022-12-12T06:37:39.666Z,79.96
2022-12-12T06:40:06.964Z,80.39
2022-12-12T06:42:36.005Z,78.24
2022-12-12T06:45:03.716Z,77.63
2022-12-12T06:47:31.332Z,76.68
2022-12-12T06:49:57.933Z,76.27
2022-12-12T06:52:24.549Z,76.99
2022-12-12T06:54:51.193Z,77.87
2022-12-12T06:57:17.863Z,79.29
2022-12-12T06:59:44.493Z,79.13
2022-12-12T07:02:11.444Z,77.76
2022-12-12T07:04:38.275Z,77.56
2022-12-12T07:07:07.792Z,77.48
2022-12-12T07:09:34.496Z,77.64
2022-12-12T07:12:01.489Z,75.29
2022-12-12T07:14:28.196Z,76.44
2022-12-12T07:16:54.929Z,75.47
2022-12-12T07:19:22.709Z,75.92
2022-12-12T07:21:49.513Z,77.90
2022-12-12T07:24:16.581Z,78.03
2022-12-12T07:26:43.145Z,78.51
2022-12-12T07:29:09.950Z,79.15
2022-12-12T07:31:36.837Z,78.38
2022-12-12T07:34:03.686Z,78.73
2022-12-12T07:36:30.995Z,78.35
2022-12-12T07:38:57.805Z,77.82
2022-12-12T07:41:24.544Z,79.62
2022-12-12T07:43:52.200Z,79.26
2022-12-12T07:46:21.748Z,77.82
2022-12-12T07:48:49.076Z,78.52
2022-12-12T07:51:16.800Z,78.10
2022-12-12T07:53:43.705Z,77.46
2022-12-12T07:56:12.654Z,78.06
2022-12-12T07:58:40.015Z,78.54
2022-12-12T08:01:18.986Z,79.44
2022-12-12T08:03:47.268Z,78.58
2022-12-12T08:06:16.698Z,77.56
2022-12-12T08:08:44.619Z,77.11
2022-12-12T08:11:13.816Z,77.10
2022-12-12T08:13:42.469Z,79.44
2022-12-12T08:16:17.932Z,78.88
2022-12-12T08:18:45.215Z,79.17
2022-12-12T08:21:13.520Z,78.48
2022-12-12T08:23:40.874Z,78.14
2022-12-12T08:26:10.181Z,75.83
2022-12-12T08:28:37.812Z,76.01
2022-12-12T08:31:04.914Z,75.88
2022-12-12T08:33:32.068Z,74.98
2022-12-12T08:35:58.777Z,74.88
2022-12-12T08:38:26.773Z,75.55
2022-12-12T08:40:53.469Z,75.84
2022-12-12T08:43:20.133Z,75.61
2022-12-12T08:45:48.024Z,77.11
2022-12-12T08:48:14.856Z,76.85
2022-12-12T08:50:41.496Z,76.87
2022-12-12T08:53:08.753Z,77.64
2022-12-12T08:55:36.096Z,78.56
2022-12-12T08:58:03.244Z,78.64
2022-12-12T09:00:30.006Z,78.47
2022-12-12T09:02:56.926Z,78.22
2022-12-12T09:05:23.894Z,78.75
2022-12-12T09:07:50.855Z,79.20
2022-12-12T09:10:17.753Z,78.75
2022-12-12T09:12:44.573Z,77.10
2022-12-12T09:15:11.775Z,77.04
2022-12-12T09:17:38.811Z,77.95
2022-12-12T09:20:06.782Z,76.94
2022-12-12T09:22:33.423Z,77.39
2022-12-12T09:25:00.608Z,78.00
2022-12-12T09:27:27.808Z,77.73
2022-12-12T09:29:54.412Z,77.37
2022-12-12T09:32:24.614Z,74.38
2022-12-12T09:34:52.004Z,75.15
2022-12-12T09:37:18.783Z,76.09
2022-12-12T09:39:45.485Z,76.93
2022-12-12T09:42:30.460Z,76.85
2022-12-12T09:45:07.499Z,74.06
2022-12-12T09:47:40.729Z,75.28
2022-12-12T09:50:19.469Z,74.91
2022-12-12T09:52:46.390Z,74.32
2022-12-12T09:55:34.941Z,74.81
2022-12-12T09:58:17.793Z,74.43
2022-12-12T10:00:51.949Z,74.64
2022-12-12T10:03:45.252Z,75.05
2022-12-12T10:09:34.628Z,73.69
2022-12-12T10:12:08.105Z,73.38
2022-12-12T10:14:45.726Z,72.97
2022-12-12T10:17:17.641Z,75.48
2022-12-12T10:19:50.891Z,73.37
2022-12-12T10:22:26.512Z,72.56
2022-12-12T10:25:05.507Z,73.29
2022-12-12T10:27:32.262Z,72.50
2022-12-12T10:30:06.896Z,72.22
2022-12-12T10:32:48.746Z,70.81
2022-12-12T10:35:27.335Z,71.85
2022-12-12T10:38:21.959Z,71.99
2022-12-12T10:40:59.519Z,72.84
2022-12-12T10:43:40.713Z,72.72
2022-12-12T10:46:28.463Z,72.65
2022-12-12T10:48:56.061Z,73.83
2022-12-12T10:51:27.504Z,73.60
2022-12-12T10:53:54.737Z,72.91
2022-12-12T10:56:29.509Z,72.17
2022-12-12T10:59:01.501Z,71.76
2022-12-12T11:02:07.834Z,72.46
2022-12-12T11:04:20.776Z,71.10
2022-12-12T11:06:52.255Z,71.07
2022-12-12T11:09:23.407Z,71.35
2022-12-12T11:12:01.970Z,71.21
2022-12-12T11:14:36.350Z,70.36
2022-12-12T11:17:27.049Z,69.35
2022-12-12T11:19:56.586Z,68.71
2022-12-12T11:22:24.204Z,68.87
2022-12-12T11:24:51.592Z,66.95
2022-12-12T11:27:51.737Z,68.42
2022-12-12T11:30:23.023Z,68.92
2022-12-12T11:32:54.637Z,68.57
2022-12-12T11:35:27.483Z,68.88
2022-12-12T11:38:00.304Z,68.26
2022-12-12T11:40:31.037Z,68.67
2022-12-12T11:43:26.935Z,70.13
2022-12-12T11:46:14.982Z,69.62
2022-12-12T11:48:54.000Z,69.16
2022-12-12T11:51:43.058Z,70.51
2022-12-12T11:54:22.844Z,70.12
2022-12-12T11:57:02.203Z,70.38
2022-12-12T11:59:47.210Z,69.72
2022-12-12T12:02:48.923Z,69.93
2022-12-12T12:05:28.035Z,68.14
2022-12-12T12:08:36.085Z,65.25
2022-12-12T12:11:09.380Z,66.06
2022-12-12T12:14:03.184Z,66.09
2022-12-12T12:16:47.126Z,66.50
2022-12-12T12:19:22.974Z,66.82
2022-12-12T12:22:07.417Z,67.37
2022-12-12T12:24:59.906Z,66.35
2022-12-12T12:27:37.357Z,67.79
2022-12-12T12:30:23.534Z,68.31
2022-12-12T12:33:05.413Z,65.83
2022-12-12T12:35:55.539Z,65.74
2022-12-12T12:38:34.799Z,67.97
2022-12-12T12:41:23.274Z,67.38
2022-12-12T12:44:13.817Z,66.80
2022-12-12T12:47:17.765Z,66.36
2022-12-12T12:49:51.517Z,67.73
2022-12-12T12:52:29.408Z,68.06
2022-12-12T12:54:58.128Z,67.52
2022-12-12T12:57:33.012Z,66.93
2022-12-12T13:00:05.698Z,65.07
2022-12-12T13:03:00.291Z,64.62
2022-12-12T13:05:35.567Z,65.56
2022-12-12T13:08:28.401Z,64.12
2022-12-12T13:11:06.657Z,64.54
2022-12-12T13:13:40.798Z,64.68
2022-12-12T13:16:13.637Z,63.85
2022-12-12T13:18:46.233Z,64.79
2022-12-12T13:21:22.130Z,65.17
2022-12-12T13:23:55.916Z,66.79
2022-12-12T13:26:44.874Z,66.80
2022-12-12T13:29:36.063Z,66.66
2022-12-12T13:32:17.768Z,66.34
2022-12-12T13:34:53.195Z,66.84
2022-12-12T13:37:22.525Z,66.49
2022-12-12T13:40:01.117Z,65.01
2022-12-12T13:42:52.215Z,63.21
2022-12-12T13:45:36.398Z,63.22
2022-12-12T13:48:09.348Z,64.09
2022-12-12T13:50:36.108Z,63.80
2022-12-12T13:53:21.160Z,62.92
2022-12-12T13:55:48.040Z,63.22
2022-12-12T13:58:17.839Z,63.32
2022-12-12T14:00:47.804Z,63.18
2022-12-12T14:03:14.524Z,64.23
2022-12-12T14:05:47.900Z,64.35
2022-12-12T14:08:14.746Z,64.68
2022-12-12T14:11:01.654Z,64.89
2022-12-12T14:13:42.845Z,65.21
2022-12-12T14:16:15.944Z,64.19
2022-12-12T14:18:52.113Z,64.02
2022-12-12T14:21:20.878Z,65.62
2022-12-12T14:23:52.932Z,66.05
2022-12-12T14:26:28.688Z,64.67
2022-12-12T14:29:17.153Z,65.18
2022-12-12T14:32:09.114Z,64.81
2022-12-12T14:35:13.592Z,63.93
2022-12-12T14:38:05.066Z,64.72
2022-12-12T14:40:34.438Z,64.70
2022-12-12T14:43:19.601Z,64.96
2022-12-12T14:45:49.017Z,64.50
2022-12-12T14:48:17.567Z,64.21
2022-12-12T14:50:48.556Z,63.90
2022-12-12T14:53:19.220Z,65.12
2022-12-12T14:55:53.396Z,64.81
2022-12-12T14:58:26.922Z,65.24
2022-12-12T15:00:57.210Z,66.44
2022-12-12T15:03:28.572Z,65.88
2022-12-12T15:06:23.553Z,65.65
2022-12-12T15:08:52.208Z,65.68
2022-12-12T15:11:30.500Z,65.32
2022-12-12T15:13:59.367Z,65.37
2022-12-12T15:16:34.888Z,65.29
2022-12-12T15:19:02.615Z,65.21
2022-12-12T15:21:33.563Z,65.83
2022-12-12T15:24:00.303Z,66.16
2022-12-12T15:26:27.944Z,66.52
2022-12-12T15:28:54.802Z,66.28
2022-12-12T15:31:22.475Z,66.70
2022-12-12T15:33:50.755Z,66.19
2022-12-12T15:36:24.557Z,66.53
2022-12-12T15:39:16.114Z,66.18
2022-12-12T15:41:44.753Z,66.29
2022-12-12T15:44:17.492Z,66.77
2022-12-12T15:46:45.649Z,66.45
2022-12-12T15:49:38.447Z,67.26
2022-12-12T15:52:22.538Z,68.07
2022-12-12T15:54:52.531Z,67.81
2022-12-12T15:57:23.146Z,67.26
2022-12-12T16:00:08.755Z,67.79
2022-12-12T16:02:36.916Z,68.67
2022-12-12T16:05:08.301Z,65.79
2022-12-12T16:07:37.786Z,68.38
2022-12-12T16:10:10.931Z,67.89
2022-12-12T16:13:21.528Z,67.70
2022-12-12T16:15:48.524Z,68.57
2022-12-12T16:18:17.801Z,68.86
2022-12-12T16:20:51.371Z,68.86
2022-12-12T16:23:27.496Z,68.51
2022-12-12T16:25:56.439Z,67.75
2022-12-12T16:28:26.119Z,67.63
2022-12-12T16:30:56.473Z,67.33
2022-12-12T16:33:35.675Z,67.32
2022-12-12T16:36:11.250Z,68.69
2022-12-12T16:38:40.017Z,69.36
2022-12-12T16:41:11.519Z,69.13
2022-12-12T16:43:39.224Z,68.73
2022-12-12T16:46:06.326Z,68.48
2022-12-12T16:48:35.936Z,68.85
2022-12-12T16:51:06.132Z,69.42
2022-12-12T16:53:34.867Z,70.14
2022-12-12T16:56:02.684Z,70.56
2022-12-12T16:58:32.250Z,70.32
2022-12-12T17:01:00.241Z,69.88
2022-12-12T17:03:27.318Z,70.72
2022-12-12T17:05:54.466Z,70.37
2022-12-12T17:08:21.275Z,70.34
2022-12-12T17:10:49.757Z,70.90
2022-12-12T17:13:20.341Z,71.54
2022-12-12T17:15:47.347Z,71.65
2022-12-12T17:18:13.989Z,71.71
2022-12-12T17:20:40.936Z,70.68
2022-12-12T17:23:29.890Z,69.67
2022-12-12T17:26:03.405Z,69.45
2022-12-12T17:28:33.604Z,69.87
2022-12-12T17:31:01.291Z,70.22
2022-12-12T17:33:28.894Z,70.24
2022-12-12T17:36:04.602Z,70.66
2022-12-12T17:38:32.394Z,71.35
2022-12-12T17:41:04.103Z,71.04
2022-12-12T17:43:30.980Z,72.41
2022-12-12T17:46:03.060Z,71.76
2022-12-12T17:48:31.447Z,72.16
2022-12-12T17:51:00.533Z,71.15
2022-12-12T17:53:32.134Z,72.11
2022-12-12T17:56:07.930Z,72.80
2022-12-12T17:58:42.135Z,73.24
2022-12-12T18:01:10.206Z,72.42
2022-12-12T18:03:37.249Z,72.36
2022-12-12T18:06:04.325Z,71.66
2022-12-12T18:08:31.131Z,71.92
2022-12-12T18:10:57.817Z,72.07
2022-12-12T18:13:24.493Z,72.10
2022-12-12T18:15:58.319Z,71.79
2022-12-12T18:18:26.773Z,71.74
2022-12-12T18:20:53.595Z,71.51
2022-12-12T18:23:21.757Z,71.53
2022-12-12T18:25:49.912Z,70.73
2022-12-12T18:28:18.096Z,70.99
2022-12-12T18:30:48.911Z,71.09
2022-12-12T18:33:15.590Z,71.59
2022-12-12T18:35:42.834Z,71.83
2022-12-12T18:38:09.745Z,71.99
2022-12-12T18:40:37.184Z,71.76
2022-12-12T18:43:03.808Z,71.83
2022-12-12T18:45:30.438Z,72.64
2022-12-12T18:47:57.146Z,72.43
2022-12-12T18:50:23.749Z,73.23
2022-12-12T18:52:50.518Z,72.99
2022-12-12T18:55:19.842Z,72.77
2022-12-12T18:57:46.467Z,72.62
2022-12-12T19:00:14.117Z,72.01
2022-12-12T19:02:41.109Z,70.87
2022-12-12T19:05:09.057Z,71.13
2022-12-12T19:07:35.626Z,73.36
2022-12-12T19:10:04.837Z,72.67
2022-12-12T19:12:32.142Z,72.35
2022-12-12T19:15:16.430Z,72.54
2022-12-12T19:17:44.110Z,71.29
2022-12-12T19:20:12.765Z,71.42
2022-12-12T19:22:45.591Z,71.17
2022-12-12T19:25:14.918Z,71.88
2022-12-12T19:27:42.110Z,71.68
2022-12-12T19:30:10.166Z,71.46
2022-12-12T19:32:37.020Z,70.37
2022-12-12T19:35:03.980Z,71.03
2022-12-12T19:37:30.710Z,71.66
2022-12-12T19:39:57.385Z,71.47
2022-12-12T19:42:25.307Z,70.84
2022-12-12T19:44:51.869Z,70.98
2022-12-12T19:47:18.825Z,70.99
2022-12-12T19:49:46.926Z,70.86
2022-12-12T19:52:14.418Z,70.94
2022-12-12T19:54:41.393Z,70.90
2022-12-12T19:57:08.090Z,70.75
2022-12-12T19:59:34.700Z,68.77
2022-12-12T20:02:01.602Z,68.36
2022-12-12T20:04:30.075Z,68.69
2022-12-12T20:06:57.342Z,68.24
2022-12-12T20:09:26.612Z,68.47
2022-12-12T20:11:54.625Z,68.91
2022-12-12T20:14:23.799Z,69.90
2022-12-12T20:16:51.502Z,69.71
2022-12-12T20:19:18.756Z,70.38
2022-12-12T20:22:03.600Z,70.25
2022-12-12T20:24:32.569Z,70.76
2022-12-12T20:27:00.211Z,69.88
2022-12-12T20:29:27.612Z,68.85
2022-12-12T20:31:54.343Z,69.02
2022-12-12T20:34:24.251Z,69.44
2022-12-12T20:36:51.181Z,69.86
2022-12-12T20:39:20.794Z,70.03
2022-12-12T20:41:48.552Z,69.40
2022-12-12T20:44:15.610Z,69.12
2022-12-12T20:46:45.379Z,68.91
2022-12-12T20:49:17.804Z,69.08
2022-12-12T20:52:00.936Z,69.54
2022-12-12T20:54:29.501Z,70.40
2022-12-12T20:56:58.645Z,70.31
2022-12-12T20:59:25.983Z,70.48
2022-12-12T21:01:53.175Z,69.82
2022-12-12T21:04:20.853Z,69.41
2022-12-12T21:06:48.595Z,69.23
2022-12-12T21:09:22.631Z,67.74
2022-12-12T21:11:50.755Z,68.73
2022-12-12T21:14:17.684Z,70.07
2022-12-12T21:16:44.291Z,70.29
2022-12-12T21:19:13.533Z,69.15
2022-12-12T21:21:42.027Z,68.82
2022-12-12T21:24:11.473Z,68.25
2022-12-12T21:26:38.371Z,68.10
2022-12-12T21:29:05.798Z,67.99
2022-12-12T21:31:36.212Z,67.84
2022-12-12T21:34:04.911Z,67.87
2022-12-12T21:36:33.184Z,67.78
2022-12-12T21:39:01.375Z,67.80
2022-12-12T21:41:28.271Z,67.43
2022-12-12T21:43:56.795Z,67.46
2022-12-12T21:46:25.961Z,67.75
2022-12-12T21:49:12.399Z,67.04
2022-12-12T21:51:40.984Z,67.73
2022-12-12T21:54:10.413Z,69.17
2022-12-12T21:56:38.899Z,70.48
2022-12-12T21:59:06.451Z,70.07
2022-12-12T22:01:33.959Z,69.42
2022-12-12T22:04:01.468Z,69.04
2022-12-12T22:06:31.009Z,69.01
2022-12-12T22:09:00.078Z,69.24
2022-12-12T22:11:41.623Z,68.88
2022-12-12T22:14:18.070Z,69.77
2022-12-12T22:16:44.917Z,69.70
2022-12-12T22:19:13.959Z,69.80
2022-12-12T22:21:40.983Z,70.38
2022-12-12T22:24:08.493Z,70.09
2022-12-12T22:26:41.171Z,69.80
2022-12-12T22:29:11.362Z,69.21
2022-12-12T22:31:39.410Z,68.98
2022-12-12T22:34:14.060Z,68.99
2022-12-12T22:36:41.236Z,68.50
2022-12-12T22:39:21.577Z,67.55
2022-12-12T22:41:48.225Z,67.81
2022-12-12T22:44:16.070Z,67.79
2022-12-12T22:46:47.649Z,67.96
2022-12-12T22:49:18.661Z,67.59
2022-12-12T22:51:45.766Z,67.20
2022-12-12T22:54:12.653Z,66.69
2022-12-12T22:56:40.691Z,66.14
2022-12-12T22:59:08.111Z,65.67
2022-12-12T23:01:34.745Z,65.37
2022-12-12T23:04:01.565Z,65.53
2022-12-12T23:06:30.908Z,64.59
2022-12-12T23:09:03.866Z,64.43
2022-12-12T23:11:31.680Z,64.65
2022-12-12T23:14:07.977Z,64.24
2022-12-12T23:16:35.644Z,64.71
2022-12-12T23:19:05.740Z,65.11
2022-12-12T23:21:33.382Z,64.77
2022-12-12T23:24:00.143Z,65.12
2022-12-12T23:26:30.157Z,65.07
2022-12-12T23:28:58.608Z,64.54
2022-12-12T23:31:28.495Z,64.28
2022-12-12T23:33:57.782Z,63.72
2022-12-12T23:36:25.861Z,63.52
2022-12-12T23:38:57.447Z,63.33
2022-12-12T23:41:24.638Z,63.79
2022-12-12T23:43:51.671Z,63.08
2022-12-12T23:46:28.805Z,62.37
2022-12-12T23:48:57.682Z,61.72
2022-12-12T23:51:26.311Z,61.61
2022-12-12T23:53:58.344Z,61.34
2022-12-12T23:56:26.583Z,61.53
2022-12-12T23:58:54.635Z,61.60
